Search for airport 
image banner adimage banner adimage banner ad
image banner ad

D83 - Boonville

Located in Boonville, United States

ICAO - D83, IATA -

Data provided by Airmate  

General information

Coordinates: N39°0'50" W123°22'54"
Elevation is 379 feet MSL.
Magnetic variation is 17° East
View others Airports in California

Operational data

Special qualification required
Current time UTC:
Current local time:
Weather at : KUKI - Ukiah Muni ( 20 km )
METAR: KUKI 210856Z AUTO 16005KT 10SM CLR 16/10 A2987 RMK AO2 SLP107 T01610100 51009
TAF: KUKI 210520Z 2106/2206 VRB03KT P6SM SKC FM211500 15010KT P6SM SKC FM212200 15015G21KT P6SM SKC FM220500 14009KT P6SM SCT250
View NOTAMs / SUP AIP / TFR affecting this airport [VIEW]
Communications frequencies: [VIEW]

Runways:

RWY identifierQFULength (ft)Width (ft)SurfaceLDA (ft)
13283850ASPH
31283850ASPH

Airport contact information

Address: Boonville United States

Satellite view of D83